メインページ
METAR-TAF:

METAR-TAF

空港 :

エスファハーン・シャヒード・ベヘシュティー国際空港

エスファハーン, イラン

緯度: 32-28N, 経度: 051-43E, 海抜: 1590m

現時点の気象観測

当レポートは18分前の18:03(UTC)に作成
北西の風 4kt
気温 1°C
湿度 93%
気圧 1025 hPa
視程: 5000m
高度3500ftの雲は散在している
高度9000ftの曇り
小雪, 雨

METAR: OIFM 171803Z 32004KT 5000 -SNRA SCT035 OVC090 01/00 Q1024 A3026

時間: 21:51 (18:21 UTC)

予報

当レポートは6時間51分前の11:30(UTC)に作成
予報は17日の 12時(UTC)から 18日の 18時(UTC)まで有効
南/南東の風 8kt
視程: 8000m
高度4000ftの雲はほとんどない
高度9000ftの千切れ雲あり
17日の 13時(UTC)から 17日の 18時(UTC)まで一時的に
東/南東の風 18kt
視程: 3000m
高度2000ftの千切れ雲あり
高度2500ftの雲はほとんどない, 積乱雲.
高度8000ftの曇り
17日の 22時(UTC)から 17日の 24時(UTC)まで徐々に
視程: 4000m
高度2000ftの千切れ雲あり
高度2500ftの雲はほとんどない, 積乱雲.
高度8000ftの曇り
雪, 雨, 靄
18日の 00時(UTC)から 18日の 06時(UTC)まで一時的に
視程: 1000m
高度1500ftの千切れ雲あり
高度2000ftの雲はほとんどない, 積乱雲.
高度7000ftの曇り
雪, 靄
18日の 13時(UTC)から 18日の 15時(UTC)まで徐々に
高度3000ftの雲はほとんどない
高度10000ftの雲は散在している

TAF: OIFM 171130Z 1712/1818 16008KT 8000 FEW040 BKN090 TEMPO 1713/1718 12018KT 3000 RA BKN020 FEW025CB OVC080 BECMG 1722/1724 4000 SNRA / BR BKN020 FEW025CB OVC080 TEMPO 1800/1806 1000 SN BR BKN015 FEW020CB OVC070 BECMG 1813/1815 FEW030 SCT100

4,000以上の空港の気象観測と天気予報(METAR報とTAF報)

利用可能な観測所は地図上に黄色い丸と赤い丸で示す。

丸の上にカーソルを重ねると観測所名を参照できる。

次にクリックすると気象観測と天気予報を参照できる。

マップの切り替え:黒色「×」印の緑ボタンをクリックして拡大、「-」印の緑ボタンをクリックして縮小、緑色の三角印をクリックして隣りの地図に切り替え


METAR-TAF: